Time;durP1;ratioP1;P1;durP2;ratioP2;P2;SDS_P1;SDS_P2;PMS_P1;PMS_P2;Temp;Humidity;BMP_temperature;BMP_pressure;BME280_temperature;BME280_humidity;BME280_pressure;Samples;Min_cycle;Max_cycle;Signal;HPM_P1;HPM_P2
2021/01/29 00:00:15;;;;;;;16.93;7.00;;;;;;;-2.97;73.12;98348.10;124894;1103;104160;-81
2021/01/29 00:03:06;;;;;;;16.73;7.10;;;;;;;-2.99;73.12;98347.27;124819;1103;103389;-81
2021/01/29 00:05:54;;;;;;;14.83;6.83;;;;;;;-3.00;73.27;98348.13;124840;1105;104226;-81
2021/01/29 00:08:23;;;;;;;14.90;7.10;;;;;;;-3.03;73.84;98333.70;124905;1105;104236;-81
2021/01/29 00:10:52;;;;;;;13.35;6.85;;;;;;;-3.03;73.38;98333.70;124880;1105;104614;-81
2021/01/29 00:13:22;;;;;;;18.13;7.97;;;;;;;-3.09;73.95;98329.48;124862;1105;104175;-81
2021/01/29 00:15:49;;;;;;;17.53;8.37;;;;;;;-3.12;74.23;98326.96;124900;1106;104311;-81
2021/01/29 00:18:18;;;;;;;14.90;8.10;;;;;;;-3.12;73.73;98334.61;124880;1105;104197;-81
2021/01/29 00:20:46;;;;;;;19.37;8.20;;;;;;;-3.12;73.82;98331.22;124839;1105;104234;-81
2021/01/29 00:23:14;;;;;;;20.10;8.33;;;;;;;-3.11;74.11;98326.09;124860;1105;104182;-81
2021/01/29 00:25:46;;;;;;;17.90;8.83;;;;;;;-3.11;74.63;98331.20;124910;1105;101881;-80
2021/01/29 00:28:14;;;;;;;17.97;9.07;;;;;;;-3.15;74.10;98321.89;124885;1105;104323;-80
2021/01/29 00:30:42;;;;;;;17.77;9.20;;;;;;;-3.15;74.50;98319.34;124860;1102;102895;-80
2021/01/29 00:33:12;;;;;;;19.07;9.47;;;;;;;-3.16;74.55;98322.75;124883;1102;104315;-80
2021/01/29 00:35:40;;;;;;;19.83;9.97;;;;;;;-3.15;74.58;98314.24;124837;1105;104123;-81
2021/01/29 00:38:08;;;;;;;20.77;9.27;;;;;;;-3.15;75.15;98324.44;124871;1105;104191;-81
2021/01/29 00:40:36;;;;;;;18.10;9.17;;;;;;;-3.18;75.08;98323.63;124825;1105;104217;-81
2021/01/29 00:43:06;;;;;;;21.10;9.27;;;;;;;-3.22;75.33;98317.72;124840;1105;104181;-81
2021/01/29 00:45:36;;;;;;;16.97;9.40;;;;;;;-3.24;75.00;98316.85;124839;1106;104255;-81
2021/01/29 00:48:05;;;;;;;21.90;10.43;;;;;;;-3.23;75.22;98316.02;124880;1102;104579;-80
2021/01/29 00:50:34;;;;;;;19.43;10.13;;;;;;;-3.23;75.47;98318.58;124914;1105;104309;-81
2021/01/29 00:53:02;;;;;;;19.97;10.13;;;;;;;-3.25;75.31;98312.61;124909;1103;104157;-81
2021/01/29 00:55:29;;;;;;;19.73;9.70;;;;;;;-3.24;75.18;98316.00;124850;1105;104219;-81
2021/01/29 00:57:58;;;;;;;20.57;10.23;;;;;;;-3.28;75.55;98317.74;124860;1103;104099;-81
2021/01/29 01:00:46;;;;;;;18.67;9.17;;;;;;;-3.27;75.26;98321.13;124831;1102;104185;-81
2021/01/29 01:03:18;;;;;;;22.87;11.27;;;;;;;-3.27;75.88;98318.59;124863;1105;102908;-80
2021/01/29 01:05:46;;;;;;;21.07;9.57;;;;;;;-3.25;75.76;98315.16;124893;1103;104244;-80
2021/01/29 01:08:17;;;;;;;18.57;9.80;;;;;;;-3.22;75.65;98312.61;124858;1105;104265;-81
2021/01/29 01:11:20;;;;;;;19.33;9.60;;;;;;;-3.18;75.97;98310.88;124657;1105;104137;-80
2021/01/29 01:14:01;;;;;;;20.13;9.60;;;;;;;-3.10;75.58;98311.64;124827;1105;104162;-80
2021/01/29 01:16:48;;;;;;;17.33;8.73;;;;;;;-3.06;75.90;98309.05;124749;1102;104156;-80
2021/01/29 01:19:43;;;;;;;16.30;8.33;;;;;;;-3.02;75.42;98316.70;124743;1105;104829;-80
2021/01/29 01:22:10;;;;;;;18.40;8.97;;;;;;;-3.00;75.33;98303.07;124885;1105;104134;-80
2021/01/29 01:25:04;;;;;;;18.63;8.33;;;;;;;-2.97;75.90;98313.23;124761;1102;104124;-81
2021/01/29 01:27:32;;;;;;;15.93;8.80;;;;;;;-2.92;75.25;98305.53;124896;1103;104211;-80
2021/01/29 01:30:24;;;;;;;19.97;9.13;;;;;;;-2.90;75.83;98314.02;124815;1103;101830;-80
2021/01/29 01:32:52;;;;;;;16.73;8.23;;;;;;;-2.85;75.89;98309.73;124915;1105;104172;-80
2021/01/29 01:35:37;;;;;;;18.17;8.90;;;;;;;-2.84;75.29;98314.83;124902;1102;104104;-80
2021/01/29 01:38:05;;;;;;;17.63;8.07;;;;;;;-2.84;75.47;98308.87;124814;1105;104288;-81
2021/01/29 01:40:45;;;;;;;18.07;8.60;;;;;;;-2.82;75.88;98310.55;124929;1102;104615;-81
2021/01/29 01:43:25;;;;;;;17.13;8.10;;;;;;;-2.77;75.82;98311.34;124851;1106;104168;-81
2021/01/29 01:46:23;;;;;;;18.40;9.43;;;;;;;-2.71;75.66;98307.88;124878;1103;104358;-80
2021/01/29 01:49:16;;;;;;;19.70;9.10;;;;;;;-2.65;75.41;98314.64;124706;1102;104243;-80
2021/01/29 01:52:09;;;;;;;19.25;9.90;;;;;;;-2.64;75.27;98317.17;124965;1105;104098;-80
2021/01/29 01:55:08;;;;;;;17.63;8.83;;;;;;;-2.60;75.71;98321.38;124874;1105;103973;-80
2021/01/29 01:57:43;;;;;;;15.15;8.20;;;;;;;-2.58;75.12;98318.81;124883;1102;104281;-80
2021/01/29 02:00:20;;;;;;;19.10;8.37;;;;;;;-2.55;75.47;98326.42;124879;1105;104204;-80
2021/01/29 02:03:19;;;;;;;14.10;7.93;;;;;;;-2.52;75.75;98313.62;124793;1103;104101;-80
2021/01/29 02:05:59;;;;;;;15.17;7.20;;;;;;;-2.48;75.74;98315.31;124886;1103;102462;-81
2021/01/29 02:08:30;;;;;;;16.90;7.80;;;;;;;-2.46;75.52;98327.19;124881;1102;104114;-81
2021/01/29 02:11:17;;;;;;;16.43;7.97;;;;;;;-2.44;74.90;98329.72;124854;1103;103133;-81
2021/01/29 02:14:01;;;;;;;17.33;8.43;;;;;;;-2.44;75.66;98322.91;124934;1105;104026;-81
2021/01/29 02:16:47;;;;;;;17.50;8.40;;;;;;;-2.43;75.06;98326.31;124816;1106;104104;-81
2021/01/29 02:19:40;;;;;;;17.03;8.07;;;;;;;-2.40;74.90;98326.27;124808;1106;104181;-80
2021/01/29 02:22:22;;;;;;;17.80;8.70;;;;;;;-2.38;75.50;98328.80;124803;1106;104146;-80
2021/01/29 02:25:26;;;;;;;17.87;7.77;;;;;;;-2.34;75.02;98325.34;124823;1105;104574;-80
2021/01/29 02:28:10;;;;;;;16.23;8.07;;;;;;;-2.34;74.97;98328.74;124843;1102;103456;-80
2021/01/29 02:31:33;;;;;;;17.37;8.58;;;;;;;-2.31;75.29;98325.34;124807;1102;104114;-80
2021/01/29 02:34:25;;;;;;;18.47;9.50;;;;;;;-2.29;74.92;98323.61;124869;1105;104128;-81
2021/01/29 02:37:25;;;;;;;16.20;7.77;;;;;;;-2.27;75.03;98321.88;124826;1102;104168;-80
2021/01/29 02:40:20;;;;;;;16.07;8.27;;;;;;;-2.25;75.09;98317.59;124875;1105;102378;-80
2021/01/29 02:43:19;;;;;;;18.13;8.43;;;;;;;-2.24;75.44;98319.28;124854;1103;104350;-80
2021/01/29 02:46:48;;;;;;;18.47;8.67;;;;;;;-2.23;74.84;98309.05;124853;1102;104197;-81
2021/01/29 02:49:34;;;;;;;16.43;7.93;;;;;;;-2.22;75.15;98320.11;124865;1102;104207;-80
2021/01/29 02:52:48;;;;;;;17.20;7.77;;;;;;;-2.20;74.67;98305.61;124826;1102;104478;-80
2021/01/29 02:56:33;;;;;;;16.50;7.93;;;;;;;-2.16;74.90;98307.25;124691;1103;102926;-81
2021/01/29 02:59:50;;;;;;;16.07;8.13;;;;;;;-2.18;74.59;98293.66;124837;1102;104296;-82
2021/01/29 03:03:04;;;;;;;16.37;7.80;;;;;;;-2.18;75.17;98296.22;124753;1102;104383;-81
2021/01/29 03:05:54;;;;;;;14.73;7.10;;;;;;;-2.20;75.04;98290.28;124875;1103;104130;-81
2021/01/29 03:08:33;;;;;;;15.90;8.20;;;;;;;-2.23;74.92;98295.44;124845;1102;104190;-81
2021/01/29 03:11:36;;;;;;;17.27;8.47;;;;;;;-2.23;75.46;98300.55;124848;1102;104115;-81
2021/01/29 03:14:37;;;;;;;15.60;7.80;;;;;;;-2.20;74.60;98292.84;124824;1102;104169;-81
2021/01/29 03:17:34;;;;;;;15.67;7.97;;;;;;;-2.18;74.90;98291.11;124849;1102;104035;-81
2021/01/29 03:20:35;;;;;;;17.43;7.97;;;;;;;-2.17;75.41;98298.75;124874;1102;103444;-81
2021/01/29 03:23:27;;;;;;;13.63;7.30;;;;;;;-2.17;74.71;98298.75;124905;1102;104191;-81
2021/01/29 03:26:20;;;;;;;12.90;6.73;;;;;;;-2.16;74.88;98295.33;124804;1103;104236;-80
2021/01/29 03:29:14;;;;;;;16.03;7.33;;;;;;;-2.15;75.41;98297.05;124832;1103;104216;-80
2021/01/29 03:32:16;;;;;;;12.77;6.80;;;;;;;-2.11;75.04;98292.74;124755;1106;104117;-80
2021/01/29 03:35:11;;;;;;;13.73;6.83;;;;;;;-2.06;75.82;98290.97;124855;1103;104226;-80
2021/01/29 03:38:06;;;;;;;13.70;6.67;;;;;;;-2.04;75.14;98289.23;124894;1102;104253;-80
2021/01/29 03:41:13;;;;;;;13.87;7.17;;;;;;;-2.03;75.20;98288.36;124881;1103;104213;-80
2021/01/29 03:44:27;;;;;;;11.03;6.03;;;;;;;-2.04;75.44;98296.05;124909;1102;104249;-80
2021/01/29 03:47:36;;;;;;;14.23;6.27;;;;;;;-2.05;75.46;98291.80;124636;1105;102540;-80
2021/01/29 03:50:48;;;;;;;12.83;6.87;;;;;;;-2.02;74.86;98292.61;124670;1106;104147;-81
2021/01/29 03:54:04;;;;;;;12.87;6.90;;;;;;;-2.03;74.97;98293.47;124795;1102;104137;-81
2021/01/29 03:56:56;;;;;;;16.00;6.80;;;;;;;-1.99;75.53;98296.83;124817;1102;104130;-81
2021/01/29 04:00:00;;;;;;;14.00;6.70;;;;;;;-1.99;74.90;98295.12;124840;1105;104203;-80
2021/01/29 04:02:50;;;;;;;11.17;6.93;;;;;;;-2.01;75.51;98289.19;124878;1106;104200;-80
2021/01/29 04:05:47;;;;;;;12.40;6.30;;;;;;;-2.01;75.99;98289.19;124849;1102;102875;-80
2021/01/29 04:08:56;;;;;;;10.07;5.93;;;;;;;-1.97;75.68;98285.75;124904;1102;104162;-80
2021/01/29 04:11:56;;;;;;;9.10;5.83;;;;;;;-1.95;75.84;98291.68;124852;1104;104131;-81
2021/01/29 04:14:51;;;;;;;10.97;5.53;;;;;;;-1.98;75.54;98284.03;124888;1103;104249;-81
2021/01/29 04:17:28;;;;;;;12.37;6.30;;;;;;;-2.02;75.29;98274.72;124849;1102;104009;-81
2021/01/29 04:20:10;;;;;;;9.20;5.83;;;;;;;-2.01;75.65;98283.23;124902;1102;104198;-81
2021/01/29 04:22:40;;;;;;;11.93;5.60;;;;;;;-2.04;74.86;98286.67;124842;1103;101756;-81
2021/01/29 04:25:38;;;;;;;11.30;5.80;;;;;;;-2.04;75.49;98279.02;124966;1105;102821;-81
2021/01/29 04:28:08;;;;;;;13.80;5.97;;;;;;;-2.05;74.91;98277.33;124867;1105;104344;-81
2021/01/29 04:30:38;;;;;;;11.70;6.33;;;;;;;-2.03;76.18;98280.70;124829;1106;104162;-81
2021/01/29 04:33:13;;;;;;;10.83;6.07;;;;;;;-2.01;75.69;98276.41;124897;1106;104165;-81
2021/01/29 04:35:41;;;;;;;11.07;6.13;;;;;;;-2.00;75.73;98270.44;124902;1103;104110;-80
2021/01/29 04:38:14;;;;;;;10.87;5.93;;;;;;;-2.01;75.52;98280.68;124933;1102;104108;-80
2021/01/29 04:40:48;;;;;;;11.20;5.67;;;;;;;-2.00;75.51;98285.77;124842;1102;104255;-80
2021/01/29 04:43:45;;;;;;;15.10;6.57;;;;;;;-2.01;75.51;98278.13;124936;1102;104256;-81
2021/01/29 04:46:31;;;;;;;;;;;;;;;-2.00;75.10;98272.99;124868;1102;105314;-81
2021/01/29 04:49:34;;;;;;;13.10;6.17;;;;;;;-2.00;75.79;98280.66;124826;1105;104114;-81
2021/01/29 04:52:13;;;;;;;15.57;6.50;;;;;;;-2.00;75.56;98265.33;124840;1105;104294;-81
2021/01/29 04:55:12;;;;;;;12.47;6.13;;;;;;;-2.00;75.22;98265.33;124813;1102;104230;-81
2021/01/29 04:57:54;;;;;;;9.63;5.33;;;;;;;-1.99;75.88;98273.83;124842;1102;104151;-81
2021/01/29 05:01:01;;;;;;;10.87;5.50;;;;;;;-2.01;76.08;98271.30;124895;1103;104150;-81
2021/01/29 05:04:06;;;;;;;11.67;5.40;;;;;;;-2.01;75.66;98267.91;124853;1102;104117;-80
2021/01/29 05:07:20;;;;;;;11.27;5.47;;;;;;;-1.99;76.11;98271.28;124866;1102;104102;-80
2021/01/29 05:10:10;;;;;;;9.90;5.13;;;;;;;-2.00;76.26;98275.55;124975;1105;104082;-80
2021/01/29 05:13:28;;;;;;;12.10;5.40;;;;;;;-1.99;75.86;98276.39;124901;1105;103970;-80
2021/01/29 05:16:17;;;;;;;11.60;5.67;;;;;;;-2.00;75.85;98270.44;124900;1105;104236;-81
2021/01/29 05:18:56;;;;;;;10.27;5.37;;;;;;;-1.98;75.63;98278.08;124848;1102;104163;-81
2021/01/29 05:22:02;;;;;;;11.55;5.90;;;;;;;-1.97;76.09;98282.35;124870;1105;104223;-80
2021/01/29 05:24:44;;;;;;;11.27;5.93;;;;;;;-1.97;76.10;98279.80;124804;1105;104194;-80
2021/01/29 05:27:56;;;;;;;11.07;5.50;;;;;;;-1.99;75.70;98277.23;124775;1105;104226;-80
2021/01/29 05:30:57;;;;;;;11.80;5.63;;;;;;;-1.97;75.87;98278.09;124861;1105;104201;-80
2021/01/29 05:34:01;;;;;;;11.90;5.43;;;;;;;-1.98;75.93;98260.20;124850;1102;104163;-81
2021/01/29 05:36:45;;;;;;;9.27;4.70;;;;;;;-1.98;76.10;98272.97;125027;1102;103736;-81
2021/01/29 05:39:33;;;;;;;9.53;4.23;;;;;;;-1.98;76.06;98271.26;124857;1102;103069;-81
2021/01/29 05:42:25;;;;;;;7.07;4.37;;;;;;;-1.99;76.30;98289.16;124815;1105;104200;-80
2021/01/29 05:45:17;;;;;;;9.60;5.05;;;;;;;-1.96;76.42;98289.99;124846;1105;104223;-80
2021/01/29 05:48:00;;;;;;;8.47;4.63;;;;;;;-1.91;76.54;98289.92;124862;1103;104388;-81
2021/01/29 05:51:05;;;;;;;10.93;5.33;;;;;;;-1.88;76.61;98289.88;124847;1105;104150;-80
2021/01/29 05:53:50;;;;;;;7.40;4.30;;;;;;;-1.84;76.12;98288.96;124835;1105;104137;-81
2021/01/29 05:56:55;;;;;;;8.40;4.43;;;;;;;-1.80;75.86;98292.31;124844;1105;104232;-80
2021/01/29 05:59:43;;;;;;;10.73;5.23;;;;;;;-1.84;75.94;98287.25;124912;1102;104233;-80
2021/01/29 06:02:30;;;;;;;8.67;4.47;;;;;;;-1.83;75.90;98283.83;124852;1102;104204;-81
2021/01/29 06:05:36;;;;;;;7.60;4.70;;;;;;;-1.83;76.40;98286.37;124865;1102;104249;-81
2021/01/29 06:08:45;;;;;;;7.70;4.80;;;;;;;-1.85;76.61;98290.67;124863;1102;102381;-80
2021/01/29 06:11:38;;;;;;;8.77;4.80;;;;;;;-1.84;76.69;98291.52;124868;1105;104240;-80
2021/01/29 06:14:36;;;;;;;7.30;4.63;;;;;;;-1.80;76.10;98298.27;124785;1105;104184;-80
2021/01/29 06:17:32;;;;;;;11.23;4.60;;;;;;;-1.76;76.68;98278.66;124874;1105;104582;-80
2021/01/29 06:20:48;;;;;;;8.17;4.80;;;;;;;-1.75;75.92;98293.11;124846;1102;104182;-80
2021/01/29 06:23:45;;;;;;;7.70;4.10;;;;;;;-1.77;76.55;98299.96;124895;1106;103105;-80
2021/01/29 06:26:59;;;;;;;6.30;3.67;;;;;;;-1.79;76.89;98291.48;124884;1103;105305;-80
2021/01/29 06:29:38;;;;;;;6.03;3.90;;;;;;;-1.80;76.87;98303.38;124819;1105;104724;-80
2021/01/29 06:32:33;;;;;;;6.60;4.17;;;;;;;-1.82;76.57;98298.29;124880;1106;104214;-80
2021/01/29 06:35:38;;;;;;;5.55;4.10;;;;;;;-1.83;76.73;98296.60;124893;1103;102950;-80
2021/01/29 06:38:34;;;;;;;6.63;4.23;;;;;;;-1.83;76.90;98299.16;124840;1106;104240;-80
2021/01/29 06:41:40;;;;;;;8.80;4.33;;;;;;;-1.82;76.68;98290.62;124769;1105;104808;-81
2021/01/29 06:44:13;;;;;;;7.50;3.90;;;;;;;-1.82;77.14;98284.67;124848;1105;102873;-81
2021/01/29 06:47:01;;;;;;;7.17;4.73;;;;;;;-1.83;77.28;98294.05;124576;1105;104194;-80
2021/01/29 06:50:03;;;;;;;5.30;3.80;;;;;;;-1.80;76.35;98299.98;124588;1105;104156;-80
2021/01/29 06:53:11;;;;;;;5.33;3.63;;;;;;;-1.78;77.05;98290.61;124625;1107;104082;-80
2021/01/29 06:56:01;;;;;;;8.85;4.65;;;;;;;-1.79;77.22;98299.98;124648;1106;102186;-81
2021/01/29 06:58:46;;;;;;;6.03;4.47;;;;;;;-1.80;76.44;98290.60;124618;1105;104682;-81
2021/01/29 07:01:47;;;;;;;10.00;5.07;;;;;;;-1.77;76.15;98295.69;124659;1105;104976;-80
2021/01/29 07:04:42;;;;;;;9.83;4.97;;;;;;;-1.75;76.60;98295.67;124662;1109;104268;-80
2021/01/29 07:07:33;;;;;;;7.70;4.70;;;;;;;-1.73;76.37;98301.59;124837;1105;103693;-80
2021/01/29 07:10:00;;;;;;;12.27;5.30;;;;;;;-1.74;77.29;98307.58;124668;1106;104380;-80
2021/01/29 07:12:48;;;;;;;9.60;5.27;;;;;;;-1.73;77.02;98288.83;124837;1105;104267;-81
2021/01/29 07:15:33;;;;;;;11.13;5.23;;;;;;;-1.73;76.71;98309.27;124654;1105;104602;-80
2021/01/29 07:18:28;;;;;;;8.07;5.17;;;;;;;-1.72;76.68;98298.17;124661;1109;104213;-80
2021/01/29 07:21:39;;;;;;;8.23;5.30;;;;;;;-1.71;76.78;98292.20;124667;1106;104127;-81
2021/01/29 07:24:28;;;;;;;8.10;5.20;;;;;;;-1.69;76.74;98301.53;124563;1109;104515;-81
2021/01/29 07:27:13;;;;;;;8.15;5.20;;;;;;;-1.67;76.61;98288.72;124533;1109;104069;-80
2021/01/29 07:30:10;;;;;;;10.07;5.43;;;;;;;-1.64;76.56;98286.96;124544;1106;104229;-80
2021/01/29 07:32:46;;;;;;;8.30;5.60;;;;;;;-1.61;76.40;98280.98;124576;1109;104102;-82
2021/01/29 07:35:44;;;;;;;9.10;5.53;;;;;;;-1.59;76.24;98285.20;124581;1105;102841;-81
2021/01/29 07:38:20;;;;;;;10.20;5.27;;;;;;;-1.53;76.85;98274.88;124526;1109;104265;-81
2021/01/29 07:41:16;;;;;;;8.63;4.73;;;;;;;-1.49;76.50;98272.27;124591;1106;104165;-80
2021/01/29 07:43:58;;;;;;;10.30;5.40;;;;;;;-1.45;76.48;98259.41;124526;1105;104194;-80
2021/01/29 07:46:42;;;;;;;10.50;5.73;;;;;;;-1.43;76.29;98250.03;124581;1109;104274;-81
2021/01/29 07:49:27;;;;;;;7.70;5.40;;;;;;;-1.42;75.66;98248.31;124535;1109;102241;-81
2021/01/29 07:52:23;;;;;;;8.30;5.80;;;;;;;-1.41;76.20;98244.89;124547;1108;104793;-81
2021/01/29 07:55:09;;;;;;;8.20;4.93;;;;;;;-1.41;76.03;98253.40;124536;1109;104165;-80
2021/01/29 07:58:10;;;;;;;8.83;4.73;;;;;;;-1.43;75.41;98262.81;124597;1103;104544;-80
2021/01/29 08:01:02;;;;;;;10.53;4.93;;;;;;;-1.40;76.14;98257.64;124871;1105;102236;-80
2021/01/29 08:03:48;;;;;;;7.70;5.10;;;;;;;-1.39;76.03;98264.45;124819;1103;104143;-80
2021/01/29 08:06:23;;;;;;;10.20;5.80;;;;;;;-1.37;75.81;98257.59;124831;1105;104188;-80
2021/01/29 08:09:02;;;;;;;7.17;5.17;;;;;;;-1.34;75.59;98262.64;124835;1105;104229;-80
2021/01/29 08:11:35;;;;;;;6.90;5.13;;;;;;;-1.29;76.05;98260.00;124812;1106;104216;-80
2021/01/29 08:14:33;;;;;;;7.67;4.90;;;;;;;-1.27;75.62;98271.89;124857;1103;104210;-80
2021/01/29 08:17:21;;;;;;;7.93;4.87;;;;;;;-1.23;75.73;98252.25;124882;1106;103168;-80
2021/01/29 08:20:20;;;;;;;7.10;4.90;;;;;;;-1.19;75.61;98260.71;124824;1102;103970;-80
2021/01/29 08:22:58;;;;;;;8.33;4.83;;;;;;;-1.20;75.02;98262.43;124908;1102;104171;-80
2021/01/29 08:25:43;;;;;;;9.67;5.07;;;;;;;-1.20;75.53;98259.87;124837;1102;104166;-80
2021/01/29 08:28:36;;;;;;;8.37;5.23;;;;;;;-1.19;75.39;98266.67;124864;1105;104154;-80
2021/01/29 08:31:42;;;;;;;8.10;5.50;;;;;;;-1.17;75.42;98264.09;124854;1105;104236;-81
2021/01/29 08:35:03;;;;;;;7.73;5.20;;;;;;;-1.14;75.44;98274.27;124851;1102;104185;-81
2021/01/29 08:37:42;;;;;;;8.43;5.23;;;;;;;-1.14;74.95;98264.03;124879;1105;104149;-81
2021/01/29 08:40:27;;;;;;;9.13;5.80;;;;;;;-1.15;75.11;98267.45;124892;1102;104162;-81
2021/01/29 08:43:19;;;;;;;10.37;6.07;;;;;;;-1.12;74.91;98268.24;124891;1105;104095;-81
2021/01/29 08:46:24;;;;;;;10.95;6.20;;;;;;;-1.07;74.91;98271.59;124911;1102;104731;-80
2021/01/29 08:49:09;;;;;;;9.17;5.90;;;;;;;-1.02;75.19;98274.06;124861;1106;104241;-80
2021/01/29 08:52:11;;;;;;;8.03;5.40;;;;;;;-0.97;74.85;98273.10;124865;1105;104111;-80
2021/01/29 08:54:52;;;;;;;11.10;6.47;;;;;;;-0.92;74.56;98270.45;124910;1105;104123;-81
2021/01/29 08:58:08;;;;;;;8.73;6.13;;;;;;;-0.90;74.57;98273.83;124883;1103;102199;-81
2021/01/29 09:00:36;;;;;;;9.40;5.63;;;;;;;-0.89;74.90;98270.42;124871;1105;104082;-81
2021/01/29 09:03:38;;;;;;;8.90;5.70;;;;;;;-0.89;74.75;98265.31;124873;1105;104184;-81
2021/01/29 09:06:17;;;;;;;10.03;6.07;;;;;;;-0.86;74.71;98264.41;124615;1109;104176;-82
2021/01/29 09:08:45;;;;;;;9.03;6.13;;;;;;;-0.85;74.99;98266.94;124660;1105;104277;-82
2021/01/29 09:11:50;;;;;;;9.57;6.30;;;;;;;-0.85;74.53;98264.38;124653;1109;102842;-82
2021/01/29 09:14:48;;;;;;;9.85;6.05;;;;;;;-0.84;74.11;98247.30;124749;1105;104140;-82
2021/01/29 09:17:21;;;;;;;;;;;;;;;-0.86;74.10;98265.25;124869;1105;104172;-81
2021/01/29 09:19:58;;;;;;;11.27;6.57;;;;;;;-0.88;73.94;98277.23;124681;1105;104864;-81
2021/01/29 09:22:44;;;;;;;9.47;6.30;;;;;;;-0.88;74.38;98272.11;124637;1109;103132;-81
2021/01/29 09:25:29;;;;;;;11.47;5.97;;;;;;;-0.83;74.43;98260.07;124639;1109;104210;-81
2021/01/29 09:28:14;;;;;;;9.00;6.00;;;;;;;-0.85;74.08;98259.25;124701;1109;105051;-82
2021/01/29 09:31:20;;;;;;;10.77;6.77;;;;;;;-0.84;74.10;98272.89;124672;1109;104242;-82
2021/01/29 09:34:03;;;;;;;9.57;6.47;;;;;;;-0.83;74.18;98260.07;124684;1105;104335;-81
2021/01/29 09:36:39;;;;;;;9.57;6.63;;;;;;;-0.81;74.24;98265.16;124635;1106;104108;-82
2021/01/29 09:39:19;;;;;;;;;;;;;;;-0.81;73.75;98253.20;124607;1109;103346;-82
2021/01/29 09:42:06;;;;;;;10.57;6.50;;;;;;;-0.80;73.70;98269.41;124868;1106;104278;-83
2021/01/29 09:44:38;;;;;;;8.43;5.90;;;;;;;-0.83;73.90;98260.07;124821;1102;104128;-81
2021/01/29 09:47:08;;;;;;;11.67;6.60;;;;;;;-0.81;73.44;98257.48;124865;1105;104149;-80
2021/01/29 09:49:41;;;;;;;10.90;6.87;;;;;;;-0.81;73.88;98263.44;124927;1105;103977;-82
2021/01/29 09:52:22;;;;;;;11.60;6.60;;;;;;;-0.81;74.01;98257.48;124935;1102;101753;-81
2021/01/29 09:55:09;;;;;;;8.73;5.70;;;;;;;-0.80;73.42;98262.56;124930;1103;104233;-81
2021/01/29 09:58:10;;;;;;;10.93;6.43;;;;;;;-0.79;74.06;98269.38;124906;1102;104149;-80
2021/01/29 10:00:54;;;;;;;10.00;6.40;;;;;;;-0.81;73.65;98268.56;124859;1105;104153;-81
2021/01/29 10:03:24;;;;;;;10.17;6.27;;;;;;;-0.81;73.78;98260.88;124905;1105;104118;-81
2021/01/29 10:05:55;;;;;;;13.07;6.90;;;;;;;-0.82;73.87;98266.03;124980;1105;102289;-81
2021/01/29 10:08:29;;;;;;;10.53;6.27;;;;;;;-0.78;73.27;98262.53;124909;1103;104159;-81
2021/01/29 10:11:21;;;;;;;10.53;6.50;;;;;;;-0.80;73.28;98270.25;124822;1105;104371;-81
2021/01/29 10:13:52;;;;;;;12.80;7.25;;;;;;;-0.83;73.29;98262.63;124865;1103;104090;-80
2021/01/29 10:16:22;;;;;;;10.17;6.23;;;;;;;-0.83;73.27;98269.47;124937;1102;104194;-80
2021/01/29 10:19:28;;;;;;;11.63;7.57;;;;;;;-0.85;73.62;98266.94;124927;1102;104192;-80
2021/01/29 10:21:58;;;;;;;11.83;7.30;;;;;;;-0.86;73.80;98267.80;124845;1105;104124;-80
2021/01/29 10:24:38;;;;;;;14.50;8.20;;;;;;;-0.84;73.47;98262.66;124836;1102;104281;-81
2021/01/29 10:27:18;;;;;;;11.67;7.13;;;;;;;-0.83;73.77;98262.63;124931;1105;104255;-81
2021/01/29 10:29:55;;;;;;;11.67;7.73;;;;;;;-0.83;73.99;98270.30;124897;1102;104105;-80
2021/01/29 10:32:33;;;;;;;10.70;6.87;;;;;;;-0.81;73.09;98265.16;124891;1102;104695;-80
2021/01/29 10:35:09;;;;;;;10.43;7.10;;;;;;;-0.82;73.50;98256.63;124764;1105;104120;-80
2021/01/29 10:38:05;;;;;;;14.13;8.23;;;;;;;-0.85;73.56;98256.70;124840;1106;104300;-80
2021/01/29 10:41:05;;;;;;;13.90;7.50;;;;;;;-0.84;73.55;98257.54;124871;1102;104159;-80
2021/01/29 10:44:00;;;;;;;12.60;7.93;;;;;;;-0.86;73.71;98265.25;124884;1102;104137;-80
2021/01/29 10:47:01;;;;;;;12.50;7.73;;;;;;;-0.85;73.13;98261.81;124892;1105;104274;-80
2021/01/29 10:49:50;;;;;;;12.00;7.40;;;;;;;-0.86;73.15;98262.69;124968;1102;104102;-80
2021/01/29 10:53:02;;;;;;;10.50;7.43;;;;;;;-0.87;73.08;98263.56;124848;1105;104265;-80
2021/01/29 10:55:39;;;;;;;12.13;7.23;;;;;;;-0.88;73.60;98263.59;124653;1106;104485;-80
2021/01/29 10:58:33;;;;;;;12.57;8.50;;;;;;;-0.90;73.05;98261.03;124588;1106;104601;-80
2021/01/29 11:01:06;;;;;;;12.67;8.13;;;;;;;-0.88;72.83;98263.59;124588;1109;104217;-80
2021/01/29 11:03:40;;;;;;;13.73;8.20;;;;;;;-0.88;73.03;98272.11;124629;1109;104271;-80
2021/01/29 11:06:15;;;;;;;13.57;8.00;;;;;;;-0.86;73.16;98274.64;124623;1105;102762;-80
2021/01/29 11:08:47;;;;;;;14.03;8.23;;;;;;;-0.84;73.07;98276.30;124601;1107;104181;-80
2021/01/29 11:11:23;;;;;;;13.07;8.23;;;;;;;-0.82;73.08;98277.11;124693;1109;104204;-81
2021/01/29 11:14:20;;;;;;;13.75;8.50;;;;;;;-0.81;73.60;98280.52;124640;1108;104114;-80
2021/01/29 11:16:46;;;;;;;14.87;8.77;;;;;;;-0.80;72.96;98269.41;124607;1109;104757;-80
2021/01/29 11:19:21;;;;;;;10.20;7.43;;;;;;;-0.82;72.63;98277.11;124642;1105;102819;-79
2021/01/29 11:22:05;;;;;;;12.87;8.47;;;;;;;-0.82;73.56;98281.39;124644;1109;103980;-80
2021/01/29 11:24:50;;;;;;;14.23;8.80;;;;;;;-0.78;73.06;98278.73;124628;1106;104174;-80
2021/01/29 11:27:46;;;;;;;15.87;9.07;;;;;;;-0.76;72.95;98282.11;124727;1106;102855;-80
2021/01/29 11:30:28;;;;;;;16.70;9.93;;;;;;;-0.79;72.62;98284.73;124723;1106;104265;-81
2021/01/29 11:33:05;;;;;;;15.40;8.70;;;;;;;-0.80;72.77;98277.92;124853;1102;104309;-81
2021/01/29 11:35:37;;;;;;;12.63;8.53;;;;;;;-0.79;72.76;98287.28;124879;1105;103938;-80
2021/01/29 11:38:15;;;;;;;12.13;7.30;;;;;;;-0.81;72.61;98283.91;124877;1105;104258;-80
2021/01/29 11:40:51;;;;;;;14.30;8.90;;;;;;;-0.82;72.60;98277.11;124866;1103;104856;-81
2021/01/29 11:43:31;;;;;;;14.25;8.98;;;;;;;-0.82;72.97;98297.58;124931;1102;104097;-80
2021/01/29 11:46:09;;;;;;;13.93;8.07;;;;;;;-0.83;72.76;98290.78;124857;1102;104274;-81
2021/01/29 11:48:51;;;;;;;12.37;8.23;;;;;;;-0.82;73.28;98289.91;124893;1103;104194;-81
2021/01/29 11:51:34;;;;;;;13.57;8.27;;;;;;;-0.82;73.10;98292.47;124908;1103;104634;-80
2021/01/29 11:54:27;;;;;;;13.00;8.50;;;;;;;-0.80;73.27;98285.60;124922;1106;103086;-80
2021/01/29 11:57:02;;;;;;;14.03;8.17;;;;;;;-0.82;72.92;98287.34;124889;1103;104128;-81
2021/01/29 11:59:35;;;;;;;13.80;8.47;;;;;;;-0.83;72.60;98277.98;124841;1105;104137;-81
2021/01/29 12:02:27;;;;;;;13.53;8.87;;;;;;;-0.82;73.05;98282.23;124846;1102;103060;-81
2021/01/29 12:05:26;;;;;;;13.70;9.00;;;;;;;-0.80;72.92;98280.48;124901;1102;102036;-81
2021/01/29 12:08:01;;;;;;;11.57;7.43;;;;;;;-0.79;72.98;98282.17;124993;1102;104253;-80
2021/01/29 12:10:37;;;;;;;13.70;8.80;;;;;;;-0.77;73.49;98290.66;125083;1102;104318;-80
2021/01/29 12:13:11;;;;;;;13.93;9.05;;;;;;;-0.75;73.39;98278.67;124878;1105;104233;-81
2021/01/29 12:15:48;;;;;;;17.40;9.13;;;;;;;-0.73;72.91;98281.20;124863;1105;104462;-80
2021/01/29 12:18:20;;;;;;;12.00;8.17;;;;;;;-0.69;72.90;98276.02;124820;1105;104261;-80
2021/01/29 12:20:48;;;;;;;16.63;9.10;;;;;;;-0.63;72.58;98278.45;124900;1105;104166;-80
2021/01/29 12:23:24;;;;;;;15.93;9.07;;;;;;;-0.62;73.06;98277.58;124833;1105;104325;-80
2021/01/29 12:26:07;;;;;;;15.57;9.43;;;;;;;-0.63;72.96;98273.34;124839;1102;104259;-80
2021/01/29 12:28:55;;;;;;;16.67;9.20;;;;;;;-0.64;72.65;98275.93;124856;1103;104274;-80
2021/01/29 12:31:41;;;;;;;16.43;9.37;;;;;;;-0.63;73.00;98278.45;124956;1105;104101;-81
2021/01/29 12:34:32;;;;;;;14.90;8.93;;;;;;;-0.61;72.36;98268.19;124899;1102;104137;-81
2021/01/29 12:37:10;;;;;;;15.07;8.03;;;;;;;-0.64;72.59;98265.69;124917;1102;104862;-81
2021/01/29 12:39:45;;;;;;;10.83;7.70;;;;;;;-0.62;72.50;98263.94;124840;1103;104251;-82
2021/01/29 12:42:18;;;;;;;12.00;8.03;;;;;;;-0.64;72.62;98269.09;124826;1106;102744;-82